createdAt,value
2022-10-06T00:00:03.115Z,101245.47
2022-10-06T00:02:34.718Z,101253.88
2022-10-06T00:05:02.690Z,101255.91
2022-10-06T00:07:30.449Z,101274.69
2022-10-06T00:09:58.230Z,101275.41
2022-10-06T00:12:25.971Z,101283.66
2022-10-06T00:14:53.727Z,101286.78
2022-10-06T00:17:23.047Z,101293.91
2022-10-06T00:19:50.788Z,101292.19
2022-10-06T00:22:18.896Z,101296.81
2022-10-06T00:24:46.845Z,101309.72
2022-10-06T00:27:14.600Z,101301.94
2022-10-06T00:29:42.847Z,101313.59
2022-10-06T00:32:10.948Z,101308.53
2022-10-06T00:34:40.086Z,101309.94
2022-10-06T00:37:07.867Z,101325.69
2022-10-06T00:39:35.625Z,101321.97
2022-10-06T00:42:03.349Z,101324.56
2022-10-06T00:44:31.260Z,101333.72
2022-10-06T00:46:59.022Z,101345.19
2022-10-06T00:49:30.605Z,101348.44
2022-10-06T00:52:02.674Z,101351.47
2022-10-06T00:54:32.039Z,101348.91
2022-10-06T00:56:59.911Z,101365.13
2022-10-06T00:59:27.643Z,101361.84
2022-10-06T01:01:57.846Z,101365.34
2022-10-06T01:04:26.107Z,101362.03
2022-10-06T01:06:55.783Z,101374.69
2022-10-06T01:09:25.013Z,101368.06
2022-10-06T01:11:54.618Z,101373.72
2022-10-06T01:14:23.328Z,101382.72
2022-10-06T01:16:54.348Z,101369.31
2022-10-06T01:19:30.339Z,101382.41
2022-10-06T01:21:59.791Z,101381.94
2022-10-06T01:24:28.954Z,101380.50
2022-10-06T01:26:58.007Z,101393.84
2022-10-06T01:29:25.861Z,101387.91
2022-10-06T01:31:53.648Z,101398.47
2022-10-06T01:34:21.584Z,101397.84
2022-10-06T01:36:49.365Z,101399.50
2022-10-06T01:39:17.096Z,101396.72
2022-10-06T01:41:47.703Z,101414.25
2022-10-06T01:44:15.494Z,101412.38
2022-10-06T01:46:43.491Z,101405.25
2022-10-06T01:49:11.418Z,101417.16
2022-10-06T01:51:39.155Z,101415.25
2022-10-06T01:54:06.922Z,101413.75
2022-10-06T01:56:34.671Z,101419.06
2022-10-06T01:59:03.940Z,101420.16
2022-10-06T02:01:31.726Z,101418.22
2022-10-06T02:03:59.586Z,101431.94
2022-10-06T02:06:27.375Z,101436.66
2022-10-06T02:08:55.201Z,101436.44
2022-10-06T02:11:23.112Z,101445.16
2022-10-06T02:13:50.872Z,101441.91
2022-10-06T02:16:21.045Z,101460.16
2022-10-06T02:18:48.843Z,101450.38
2022-10-06T02:21:17.582Z,101458.06
2022-10-06T02:23:45.461Z,101460.75
2022-10-06T02:26:13.800Z,101470.59
2022-10-06T02:28:41.636Z,101473.56
2022-10-06T02:31:10.046Z,101467.47
2022-10-06T02:33:39.824Z,101471.44
2022-10-06T02:36:09.079Z,101478.06
2022-10-06T02:38:36.833Z,101480.25
2022-10-06T02:41:04.602Z,101492.59
2022-10-06T02:43:32.371Z,101498.56
2022-10-06T02:46:01.402Z,101490.66
2022-10-06T02:48:30.094Z,101506.84
2022-10-06T02:51:00.401Z,101504.94
2022-10-06T02:53:28.723Z,101507.69
2022-10-06T02:56:00.560Z,101512.13
2022-10-06T02:58:30.941Z,101513.31
2022-10-06T03:01:02.110Z,101521.78
2022-10-06T03:03:30.190Z,101533.28
2022-10-06T03:06:02.665Z,101526.16
2022-10-06T03:08:31.009Z,101538.56
2022-10-06T03:11:02.472Z,101544.84
2022-10-06T03:13:30.909Z,101549.50
2022-10-06T03:15:58.712Z,101547.28
2022-10-06T03:18:26.941Z,101547.34
2022-10-06T03:20:55.147Z,101568.41
2022-10-06T03:23:24.207Z,101563.22
2022-10-06T03:25:58.007Z,101575.84
2022-10-06T03:28:26.375Z,101568.13
2022-10-06T03:30:54.812Z,101568.69
2022-10-06T03:33:22.512Z,101576.38
2022-10-06T03:35:58.645Z,101590.69
2022-10-06T03:38:28.231Z,101592.34
2022-10-06T03:41:02.577Z,101592.34
2022-10-06T03:43:30.511Z,101609.34
2022-10-06T03:45:59.095Z,101600.50
2022-10-06T03:48:27.254Z,101613.09
2022-10-06T03:50:56.236Z,101615.56
2022-10-06T03:53:27.829Z,101614.53
2022-10-06T03:56:04.874Z,101624.69
2022-10-06T03:58:34.058Z,101630.75
2022-10-06T04:01:02.461Z,101636.19
2022-10-06T04:03:30.454Z,101627.44
2022-10-06T04:05:59.347Z,101639.53
2022-10-06T04:08:28.080Z,101634.56
2022-10-06T04:10:56.098Z,101644.41
2022-10-06T04:13:25.193Z,101651.25
2022-10-06T04:15:52.912Z,101646.09
2022-10-06T04:18:20.768Z,101651.03
2022-10-06T04:20:48.479Z,101657.59
2022-10-06T04:23:16.530Z,101659.78
2022-10-06T04:25:44.256Z,101661.44
2022-10-06T04:28:12.055Z,101670.72
2022-10-06T04:30:41.289Z,101679.50
2022-10-06T04:33:09.109Z,101679.47
2022-10-06T04:35:36.852Z,101695.38
2022-10-06T04:38:04.576Z,101692.34
2022-10-06T04:40:32.292Z,101703.31
2022-10-06T04:43:00.405Z,101709.06
2022-10-06T04:45:28.138Z,101705.78
2022-10-06T04:47:57.289Z,101699.22
2022-10-06T04:50:25.033Z,101701.38
2022-10-06T04:52:54.010Z,101722.97
2022-10-06T04:55:21.868Z,101723.53
2022-10-06T04:57:49.571Z,101723.81
2022-10-06T05:00:26.765Z,101727.91
2022-10-06T05:02:55.343Z,101742.69
2022-10-06T05:05:24.538Z,101739.41
2022-10-06T05:07:52.260Z,101737.81
2022-10-06T05:10:29.410Z,101750.38
2022-10-06T05:12:59.611Z,101745.72
2022-10-06T05:15:30.275Z,101756.63
2022-10-06T05:17:58.080Z,101765.38
2022-10-06T05:20:27.163Z,101762.03
2022-10-06T05:22:55.135Z,101770.00
2022-10-06T05:25:22.863Z,101769.63
2022-10-06T05:27:50.774Z,101780.09
2022-10-06T05:30:18.628Z,101775.75
2022-10-06T05:32:46.758Z,101784.47
2022-10-06T05:35:14.535Z,101791.28
2022-10-06T05:37:43.694Z,101790.97
2022-10-06T05:40:11.776Z,101797.50
2022-10-06T05:42:40.331Z,101810.22
2022-10-06T05:45:08.687Z,101806.41
2022-10-06T05:47:36.633Z,101811.84
2022-10-06T05:50:04.620Z,101814.53
2022-10-06T05:52:33.001Z,101818.41
2022-10-06T05:55:02.159Z,101824.44
2022-10-06T05:57:30.113Z,101835.34
2022-10-06T05:59:58.135Z,101837.22
2022-10-06T06:02:26.186Z,101839.44
2022-10-06T06:04:54.602Z,101843.81
2022-10-06T06:07:22.352Z,101846.91
2022-10-06T06:09:50.146Z,101841.72
2022-10-06T06:12:19.270Z,101853.72
2022-10-06T06:15:04.617Z,101859.81
2022-10-06T06:17:33.736Z,101860.13
2022-10-06T06:20:01.628Z,101859.88
2022-10-06T06:22:29.494Z,101863.47
2022-10-06T06:24:57.245Z,101868.41
2022-10-06T06:27:26.410Z,101867.88
2022-10-06T06:29:54.658Z,101879.91
2022-10-06T06:32:22.485Z,101882.41
2022-10-06T06:34:50.196Z,101892.63
2022-10-06T06:37:17.904Z,101889.69
2022-10-06T06:39:45.607Z,101885.13
2022-10-06T06:42:13.497Z,101888.13
2022-10-06T06:44:42.560Z,101899.97
2022-10-06T06:47:10.289Z,101901.81
2022-10-06T06:49:38.522Z,101907.94
2022-10-06T06:52:06.234Z,101913.69
2022-10-06T06:54:34.130Z,101911.75
2022-10-06T06:57:01.831Z,101925.63
2022-10-06T06:59:32.921Z,101924.44
2022-10-06T07:02:03.212Z,101924.16
2022-10-06T07:04:32.771Z,101925.09
2022-10-06T07:07:00.622Z,101925.69
2022-10-06T07:09:28.359Z,101924.63
2022-10-06T07:11:56.141Z,101931.22
2022-10-06T07:14:24.259Z,101933.66
2022-10-06T07:17:09.696Z,101934.34
2022-10-06T07:19:56.850Z,101944.91
2022-10-06T07:22:43.266Z,101942.50
2022-10-06T07:25:15.159Z,101953.22
2022-10-06T07:27:43.992Z,101960.69
2022-10-06T07:30:12.894Z,101967.88
2022-10-06T07:32:40.652Z,101968.72
2022-10-06T07:35:10.199Z,101974.47
2022-10-06T07:37:38.049Z,101967.38
2022-10-06T07:40:07.398Z,101977.59
2022-10-06T07:42:47.904Z,101982.72
2022-10-06T07:45:34.096Z,101981.31
2022-10-06T07:48:02.480Z,101991.66
2022-10-06T07:50:31.979Z,102000.25
2022-10-06T07:53:08.991Z,101986.72
2022-10-06T07:55:39.802Z,101993.06
2022-10-06T07:58:11.212Z,102006.44
2022-10-06T08:00:39.166Z,102008.50
2022-10-06T08:03:07.047Z,102003.91
2022-10-06T08:05:36.328Z,102013.81
2022-10-06T08:08:04.109Z,102014.88
2022-10-06T08:10:31.939Z,102018.69
2022-10-06T08:13:01.150Z,102021.81
2022-10-06T08:15:28.865Z,102016.75
2022-10-06T08:17:57.531Z,102025.69
2022-10-06T08:20:28.008Z,102024.31
2022-10-06T08:22:57.120Z,102025.84
2022-10-06T08:25:25.005Z,102024.66
2022-10-06T08:27:53.658Z,102026.34
2022-10-06T08:30:22.233Z,102023.22
2022-10-06T08:32:50.186Z,102024.97
2022-10-06T08:35:18.045Z,102034.31
2022-10-06T08:37:45.859Z,102039.34
2022-10-06T08:40:15.872Z,102036.97
2022-10-06T08:42:44.272Z,102055.53
2022-10-06T08:45:15.476Z,102039.19
2022-10-06T08:47:50.111Z,102044.81
2022-10-06T08:50:21.148Z,102056.94
2022-10-06T08:52:51.702Z,102049.81
2022-10-06T08:55:27.217Z,102059.34
2022-10-06T08:58:01.925Z,102065.00
2022-10-06T09:00:33.592Z,102060.84
2022-10-06T09:03:02.697Z,102065.13
2022-10-06T09:05:31.881Z,102071.91
2022-10-06T09:08:06.057Z,102068.44
2022-10-06T09:10:41.043Z,102062.50
2022-10-06T09:13:12.311Z,102067.59
2022-10-06T09:15:43.031Z,102072.72
2022-10-06T09:18:16.886Z,102075.41
2022-10-06T09:20:48.200Z,102070.94
2022-10-06T09:23:17.903Z,102072.13
2022-10-06T09:25:47.032Z,102075.25
2022-10-06T09:28:16.121Z,102081.13
2022-10-06T09:30:44.203Z,102081.41
2022-10-06T09:33:18.971Z,102084.91
2022-10-06T09:36:14.817Z,102090.00
2022-10-06T09:38:53.714Z,102098.22
2022-10-06T09:41:26.273Z,102101.13
2022-10-06T09:43:56.155Z,102103.78
2022-10-06T09:46:29.212Z,102096.72
2022-10-06T09:49:18.385Z,102090.22
2022-10-06T09:52:02.786Z,102101.03
2022-10-06T09:54:31.089Z,102103.69
2022-10-06T09:57:08.124Z,102113.94
2022-10-06T09:59:40.113Z,102107.09
2022-10-06T10:02:23.423Z,102107.25
2022-10-06T10:04:54.677Z,102100.94
2022-10-06T10:07:24.783Z,102114.75
2022-10-06T10:09:52.718Z,102113.38
2022-10-06T10:12:32.031Z,102107.78
2022-10-06T10:15:02.308Z,102110.81
2022-10-06T10:17:39.370Z,102120.78
2022-10-06T10:20:09.250Z,102103.41
2022-10-06T10:22:38.290Z,102102.84
2022-10-06T10:25:13.747Z,102111.59
2022-10-06T10:27:52.025Z,102114.94
2022-10-06T10:30:20.086Z,102117.88
2022-10-06T10:32:56.331Z,102107.50
2022-10-06T10:35:26.935Z,102113.06
2022-10-06T10:37:56.213Z,102102.28
2022-10-06T10:40:28.639Z,102111.31
2022-10-06T10:43:02.504Z,102105.38
2022-10-06T10:45:33.886Z,102110.78
2022-10-06T10:48:02.602Z,102111.44
2022-10-06T10:50:32.908Z,102111.53
2022-10-06T10:53:05.039Z,102122.81
2022-10-06T10:55:37.238Z,102121.63
2022-10-06T10:58:12.284Z,102115.16
2022-10-06T11:00:42.750Z,102120.97
2022-10-06T11:03:11.084Z,102118.06
2022-10-06T11:05:45.440Z,102128.75
2022-10-06T11:08:19.008Z,102124.84
2022-10-06T11:10:48.742Z,102123.81
2022-10-06T11:13:23.401Z,102120.38
2022-10-06T11:16:01.085Z,102120.72
2022-10-06T11:18:36.521Z,102124.94
2022-10-06T11:21:08.699Z,102125.38
2022-10-06T11:23:51.491Z,102128.22
2022-10-06T11:26:26.812Z,102128.66
2022-10-06T11:28:59.577Z,102129.81
2022-10-06T11:31:33.925Z,102125.56
2022-10-06T11:34:02.581Z,102129.72
2022-10-06T11:36:35.829Z,102115.50
2022-10-06T11:39:08.755Z,102132.47
2022-10-06T11:41:39.472Z,102128.13
2022-10-06T11:44:14.268Z,102121.59
2022-10-06T11:46:45.341Z,102113.53
2022-10-06T11:49:31.643Z,102126.78
2022-10-06T11:52:23.366Z,102118.94
2022-10-06T11:54:53.260Z,102115.00
2022-10-06T11:57:41.680Z,102110.59
2022-10-06T12:00:24.495Z,102127.41
2022-10-06T12:02:53.812Z,102111.25
2022-10-06T12:05:56.114Z,102102.78
2022-10-06T12:08:35.471Z,102113.78
2022-10-06T12:11:03.606Z,102107.88
2022-10-06T12:19:21.346Z,102102.50
2022-10-06T12:21:54.493Z,102105.72
2022-10-06T12:24:27.390Z,102101.88
2022-10-06T12:27:02.816Z,102092.97
2022-10-06T12:29:35.437Z,102097.25
2022-10-06T12:32:09.770Z,102094.66
2022-10-06T12:34:52.756Z,102091.91
2022-10-06T12:37:21.646Z,102085.41
2022-10-06T12:39:49.400Z,102090.41
2022-10-06T12:42:20.699Z,102084.72
2022-10-06T12:44:51.024Z,102082.31
2022-10-06T12:47:22.408Z,102084.50
2022-10-06T12:49:53.702Z,102077.59
2022-10-06T12:52:34.995Z,102084.88
2022-10-06T12:55:14.504Z,102080.53
2022-10-06T12:57:46.386Z,102078.75
2022-10-06T13:00:37.518Z,102079.94
2022-10-06T13:03:07.092Z,102082.72
2022-10-06T13:05:37.281Z,102074.31
2022-10-06T13:08:06.405Z,102073.84
2022-10-06T13:10:34.514Z,102083.13
2022-10-06T13:13:02.364Z,102081.88
2022-10-06T13:18:00.822Z,102073.06
2022-10-06T13:20:38.144Z,102090.44
2022-10-06T13:23:15.069Z,102076.44
2022-10-06T13:25:44.185Z,102064.97
2022-10-06T13:28:25.498Z,102071.34
2022-10-06T13:30:54.439Z,102079.72
2022-10-06T13:33:23.316Z,102079.13
2022-10-06T13:35:54.249Z,102077.66
2022-10-06T13:38:22.481Z,102080.34
2022-10-06T13:41:07.050Z,102071.00
2022-10-06T13:43:39.832Z,102073.50
2022-10-06T13:46:09.143Z,102080.38
2022-10-06T13:48:37.293Z,102066.84
2022-10-06T13:51:06.502Z,102070.53
2022-10-06T13:53:34.507Z,102074.56
2022-10-06T13:56:02.233Z,102074.19
2022-10-06T13:58:31.128Z,102074.69
2022-10-06T14:01:00.692Z,102074.69
2022-10-06T14:03:33.664Z,102076.16
2022-10-06T14:06:07.293Z,102070.09
2022-10-06T14:08:36.019Z,102070.59
2022-10-06T14:11:05.232Z,102072.78
2022-10-06T14:13:38.977Z,102072.16
2022-10-06T14:16:08.076Z,102072.03
2022-10-06T14:18:38.485Z,102067.47
2022-10-06T14:21:21.863Z,102066.78
2022-10-06T14:23:50.829Z,102065.38
2022-10-06T14:26:19.415Z,102067.41
2022-10-06T14:28:48.332Z,102071.88
2022-10-06T14:31:16.578Z,102061.97
2022-10-06T14:33:44.415Z,102068.06
2022-10-06T14:36:16.029Z,102074.31
2022-10-06T14:38:46.893Z,102067.19
2022-10-06T14:41:18.899Z,102063.66
2022-10-06T14:43:47.624Z,102069.56
2022-10-06T14:46:15.994Z,102071.34
2022-10-06T14:48:43.757Z,102064.50
2022-10-06T14:51:11.635Z,102063.97
2022-10-06T14:53:40.257Z,102056.97
2022-10-06T14:56:10.641Z,102068.06
2022-10-06T14:58:39.532Z,102065.91
2022-10-06T15:01:08.319Z,102076.56
2022-10-06T15:03:36.375Z,102064.94
2022-10-06T15:06:22.864Z,102066.38
2022-10-06T15:08:51.814Z,102076.88
2022-10-06T15:11:21.596Z,102067.94
2022-10-06T15:13:49.728Z,102068.00
2022-10-06T15:16:18.137Z,102071.84
2022-10-06T15:18:45.928Z,102066.59
2022-10-06T15:21:13.863Z,102071.31
2022-10-06T15:23:41.878Z,102069.69
2022-10-06T15:26:28.606Z,102058.63
2022-10-06T15:29:03.860Z,102067.22
2022-10-06T15:31:33.002Z,102051.53
2022-10-06T15:34:01.838Z,102063.06
2022-10-06T15:36:30.410Z,102065.94
2022-10-06T15:38:58.827Z,102059.56
2022-10-06T15:41:26.916Z,102054.97
2022-10-06T15:43:58.368Z,102059.66
2022-10-06T15:46:28.724Z,102070.34
2022-10-06T15:48:58.837Z,102067.06
2022-10-06T15:51:27.224Z,102060.44
2022-10-06T15:53:55.282Z,102060.19
2022-10-06T15:56:23.003Z,102062.06
2022-10-06T15:58:50.977Z,102055.69
2022-10-06T16:01:34.335Z,102061.81
2022-10-06T16:04:09.220Z,102060.84
2022-10-06T16:06:49.607Z,102067.69
2022-10-06T16:09:18.627Z,102061.75
2022-10-06T16:11:46.839Z,102072.44
2022-10-06T16:14:15.118Z,102067.38
2022-10-06T16:16:45.547Z,102061.63
2022-10-06T16:19:13.773Z,102059.88
2022-10-06T16:21:42.708Z,102061.66
2022-10-06T16:24:10.835Z,102058.81
2022-10-06T16:26:38.765Z,102069.16
2022-10-06T16:29:06.497Z,102060.28
2022-10-06T16:31:34.352Z,102070.59
2022-10-06T16:34:03.665Z,102065.31
2022-10-06T16:36:31.426Z,102069.31
2022-10-06T16:38:59.201Z,102072.25
2022-10-06T16:41:26.940Z,102073.50
2022-10-06T16:43:54.856Z,102073.63
2022-10-06T16:46:24.334Z,102072.69
2022-10-06T16:48:53.646Z,102081.94
2022-10-06T16:51:23.588Z,102079.56
2022-10-06T16:53:52.266Z,102073.88
2022-10-06T16:56:21.074Z,102080.56
2022-10-06T16:58:50.192Z,102084.47
2022-10-06T17:01:18.533Z,102082.31
2022-10-06T17:03:46.614Z,102077.16
2022-10-06T17:06:15.312Z,102077.28
2022-10-06T17:08:45.040Z,102075.09
2022-10-06T17:11:14.420Z,102088.66
2022-10-06T17:13:43.579Z,102087.88
2022-10-06T17:16:12.789Z,102084.88
2022-10-06T17:18:41.366Z,102083.59
2022-10-06T17:21:32.235Z,102080.59
2022-10-06T17:24:00.786Z,102081.69
2022-10-06T17:26:29.406Z,102095.44
2022-10-06T17:28:58.699Z,102096.56
2022-10-06T17:31:29.867Z,102093.53
2022-10-06T17:33:57.866Z,102090.00
2022-10-06T17:36:26.526Z,102088.41
2022-10-06T17:38:56.608Z,102095.00
2022-10-06T17:41:29.379Z,102089.50
2022-10-06T17:43:58.897Z,102098.06
2022-10-06T17:46:27.233Z,102086.25
2022-10-06T17:48:56.252Z,102098.06
2022-10-06T17:51:25.059Z,102094.75
2022-10-06T17:53:56.097Z,102095.56
2022-10-06T17:56:24.778Z,102089.25
2022-10-06T17:58:54.726Z,102091.97
2022-10-06T18:01:23.240Z,102087.03
2022-10-06T18:03:55.209Z,102090.88
2022-10-06T18:06:23.985Z,102092.97
2022-10-06T18:08:51.873Z,102095.44
2022-10-06T18:11:35.683Z,102098.69
2022-10-06T18:14:06.039Z,102093.97
2022-10-06T18:16:39.713Z,102097.50
2022-10-06T18:19:08.854Z,102094.78
2022-10-06T18:21:38.722Z,102084.41
2022-10-06T18:24:07.773Z,102095.31
2022-10-06T18:26:38.311Z,102094.25
2022-10-06T18:29:07.610Z,102094.44
2022-10-06T18:31:36.053Z,102096.06
2022-10-06T18:36:52.642Z,102091.06
2022-10-06T18:39:20.384Z,102100.59
2022-10-06T18:41:50.929Z,102095.81
2022-10-06T18:44:40.442Z,102093.91
2022-10-06T18:47:26.262Z,102100.66
2022-10-06T18:49:54.190Z,102088.44
2022-10-06T18:52:22.549Z,102098.53
2022-10-06T18:54:50.706Z,102096.31
2022-10-06T18:57:18.516Z,102091.13
2022-10-06T18:59:47.647Z,102104.31
2022-10-06T19:02:16.648Z,102101.38
2022-10-06T19:04:44.604Z,102108.44
2022-10-06T19:07:12.389Z,102105.88
2022-10-06T19:09:45.932Z,102103.25
2022-10-06T19:12:15.046Z,102105.63
2022-10-06T19:14:47.563Z,102108.75
2022-10-06T19:17:17.020Z,102114.00
2022-10-06T19:19:46.081Z,102107.66
2022-10-06T19:22:14.664Z,102107.91
2022-10-06T19:24:43.665Z,102109.06
2022-10-06T19:27:12.508Z,102104.00
2022-10-06T19:29:44.004Z,102112.03
2022-10-06T19:32:12.729Z,102112.13
2022-10-06T19:34:41.834Z,102111.34
2022-10-06T19:37:09.672Z,102107.00
2022-10-06T19:39:40.284Z,102101.94
2022-10-06T19:42:25.438Z,102117.38
2022-10-06T19:44:53.414Z,102104.91
2022-10-06T19:47:21.139Z,102113.25
2022-10-06T19:49:50.249Z,102116.50
2022-10-06T19:52:18.037Z,102105.56
2022-10-06T19:54:46.074Z,102106.00
2022-10-06T19:57:14.099Z,102103.78
2022-10-06T19:59:41.950Z,102107.94
2022-10-06T20:02:10.182Z,102106.06
2022-10-06T20:04:38.413Z,102112.91
2022-10-06T20:07:09.038Z,102110.69
2022-10-06T20:09:36.929Z,102115.50
2022-10-06T20:12:05.784Z,102103.03
2022-10-06T20:14:33.532Z,102114.41
2022-10-06T20:17:02.637Z,102113.41
2022-10-06T20:19:30.887Z,102112.31
2022-10-06T20:21:59.183Z,102110.31
2022-10-06T20:24:28.240Z,102114.13
2022-10-06T20:26:56.014Z,102120.25
2022-10-06T20:29:24.999Z,102117.25
2022-10-06T20:31:53.842Z,102117.44
2022-10-06T20:34:23.422Z,102116.28
2022-10-06T20:36:55.689Z,102121.06
2022-10-06T20:39:42.777Z,102114.81
2022-10-06T20:42:15.027Z,102120.97
2022-10-06T20:44:43.653Z,102110.50
2022-10-06T20:47:11.436Z,102119.09
2022-10-06T20:49:39.233Z,102117.84
2022-10-06T20:52:07.261Z,102117.91
2022-10-06T20:54:35.464Z,102116.66
2022-10-06T20:57:04.385Z,102102.78
2022-10-06T20:59:35.387Z,102102.88
2022-10-06T21:02:04.628Z,102102.69
2022-10-06T21:04:32.597Z,102115.81
2022-10-06T21:07:01.705Z,102104.28
2022-10-06T21:09:31.058Z,102100.16
2022-10-06T21:11:59.026Z,102096.00
2022-10-06T21:14:27.146Z,102095.44
2022-10-06T21:16:56.416Z,102092.25
2022-10-06T21:19:25.201Z,102089.03
2022-10-06T21:21:55.529Z,102092.06
2022-10-06T21:24:23.513Z,102095.56
2022-10-06T21:26:52.874Z,102093.91
2022-10-06T21:29:21.093Z,102092.41
2022-10-06T21:31:49.113Z,102083.50
2022-10-06T21:34:18.379Z,102090.94
2022-10-06T21:36:46.310Z,102084.66
2022-10-06T21:39:14.464Z,102087.44
2022-10-06T21:41:43.185Z,102087.34
2022-10-06T21:44:11.787Z,102094.81
2022-10-06T21:46:40.237Z,102091.84
2022-10-06T21:49:10.149Z,102080.97
2022-10-06T21:51:40.281Z,102077.50
2022-10-06T21:54:10.174Z,102081.53
2022-10-06T21:56:38.105Z,102073.47
2022-10-06T21:59:06.129Z,102068.75
2022-10-06T22:01:34.787Z,102070.72
2022-10-06T22:04:03.562Z,102064.59
2022-10-06T22:06:32.883Z,102062.94
2022-10-06T22:09:02.548Z,102059.81
2022-10-06T22:11:31.999Z,102061.75
2022-10-06T22:14:01.205Z,102059.16
2022-10-06T22:16:30.222Z,102057.09
2022-10-06T22:18:58.769Z,102052.63
2022-10-06T22:21:27.904Z,102051.25
2022-10-06T22:23:57.030Z,102050.19
2022-10-06T22:26:27.097Z,102049.34
2022-10-06T22:28:56.003Z,102044.44
2022-10-06T22:31:26.354Z,102037.03
2022-10-06T22:33:55.861Z,102039.28
2022-10-06T22:36:24.382Z,102045.41
2022-10-06T22:38:52.652Z,102043.88
2022-10-06T22:41:21.130Z,102033.84
2022-10-06T22:43:50.474Z,102033.22
2022-10-06T22:46:18.481Z,102025.19
2022-10-06T22:48:46.444Z,102021.59
2022-10-06T22:51:14.456Z,102019.81
2022-10-06T22:53:42.578Z,102012.94
2022-10-06T22:56:10.546Z,102017.91
2022-10-06T22:58:38.996Z,102014.16
2022-10-06T23:01:11.935Z,102007.44
2022-10-06T23:03:40.514Z,102005.66
2022-10-06T23:06:09.348Z,102001.00
2022-10-06T23:08:38.205Z,102004.78
2022-10-06T23:11:06.710Z,102005.06
2022-10-06T23:13:35.139Z,102005.19
2022-10-06T23:16:07.390Z,101998.97
2022-10-06T23:18:38.613Z,101990.00
2022-10-06T23:21:06.863Z,101992.13
2022-10-06T23:23:35.223Z,101985.03
2022-10-06T23:26:04.234Z,101983.84
2022-10-06T23:28:32.307Z,101979.84
2022-10-06T23:31:00.256Z,101973.22
2022-10-06T23:33:30.126Z,101972.31
2022-10-06T23:35:59.886Z,101974.53
2022-10-06T23:38:28.200Z,101979.78
2022-10-06T23:40:56.240Z,101972.63
2022-10-06T23:43:24.349Z,101973.69
2022-10-06T23:45:52.567Z,101966.34
2022-10-06T23:48:20.665Z,101973.22
2022-10-06T23:50:59.805Z,101972.06
2022-10-06T23:53:28.511Z,101965.53
2022-10-06T23:55:56.451Z,101964.47
2022-10-06T23:58:24.810Z,101967.44
